Park City, UT (84098)

1:59 PM MDT on September 21, 2014 (GMT -0600)
Pineridge | Change Station
CLOSE
Current Station
Personal Weather Station
Location: Park City, UT
Elevation: 7018 ft
Nearby Weather Stations

Elev 7018 ft 40.73 °N, 111.59 °W | Updated 2 seconds ago

Mostly Cloudy
Mostly Cloudy
55.6 °F
Feels Like 55.6 °F
N
3.0
Wind Variable Wind from North
Gusts 8.0 mph

Today
High -- | Low -- °F
--% Chance of Precip.
Yesterday
High -- | Low -- °F
Precip. -- in
7:12 AM 7:24 PM
Waning Crescent, 5% visible
Pressure 30.27 in
Visibility 10.0 miles
Clouds Scattered Clouds 2100 ft
Scattered Clouds 2900 ft
Mostly Cloudy 8500 ft
Dew Point 52 °F
Humidity 86%
Rainfall 0.05 in
Snow Depth 0 in , 1 in , 0 in
UV 1.6 out of 12
Pollen 3.80 out of 12
Air Quality Not available.
Flu Activity Not available.
METAR K36U 211930Z AUTO 00000KT 10SM RA SCT021 SCT029 BKN085 13/11 A3027 RMK AO2

More Conditions Fewer Conditions

Pressure 30.27 in
Visibility 10.0 miles
Clouds Scattered Clouds 2100 ft
Scattered Clouds 2900 ft
Mostly Cloudy 8500 ft
Dew Point 52 °F
Humidity 86%
Rainfall 0.05 in
Snow Depth 0 in , 1 in , 0 in
UV 1.6 out of 12
Pollen 3.80 out of 12
Air Quality Not available.
Flu Activity Not available.
METAR K36U 211930Z AUTO 00000KT 10SM RA SCT021 SCT029 BKN085 13/11 A3027 RMK AO2

More Conditions Fewer Conditions

10-Day Weather Forecast

Almanac

Astronomy

Sep. 21, 2014 Rise Set
Actual Time 7:12 AM MDT 7:24 PM MDT
Civil Twilight 6:45 AM MDT 7:52 PM MDT
Nautical Twilight 6:13 AM MDT 8:24 PM MDT
Astronomical Twilight 5:40 AM MDT 8:56 PM MDT
Moon 4:49 AM MDT 6:03 PM MDT
Length of Visible Light 13h 06m
Length of Day
12h 12m
Tomorrow will be 2m 41s shorter.
Waning Crescent, 5% of the Moon is Illuminated
Today
Waning Crescent
Sep 24
New
Oct 1
First Quarter
Oct 8
Full
Oct 15
Last Quarter

Today's Extremes

State Highs State Lows

Community

WunderPhotos

Upload Photos

1,755,233 photos uploaded!

Nearby

Snow Depth

Station Depth Elevation
Monte Cristo 0 in 8960 ft
Long Valley Jct 1 in 7360 ft
Dry Fork 0 in 7160 ft
Trial Lake 2 in 9960 ft
King's Cabin 0 in 8730 ft

Earthquake Activity

City Distance Mag. Time & Date
No recent earthquake activity has been reported nearby.
Minimum magnitude displayed is 2.5.

Coastal Water Temperatures

Place Temperature
No Stations Reporting

Nearby Weather Stations